sensor_id;sensor_type;location;lat;lon;timestamp;P1;durP1;ratioP1;P2;durP2;ratioP2
3795;SDS011;1913;50.660;7.834;2023-03-26T00:02:08;12.60;;;2.77;;
3795;SDS011;1913;50.660;7.834;2023-03-26T00:04:37;16.60;;;3.30;;
3795;SDS011;1913;50.660;7.834;2023-03-26T00:07:03;16.73;;;2.70;;
3795;SDS011;1913;50.660;7.834;2023-03-26T00:09:40;15.33;;;2.70;;
3795;SDS011;1913;50.660;7.834;2023-03-26T00:12:08;18.67;;;3.03;;
3795;SDS011;1913;50.660;7.834;2023-03-26T00:14:47;9.90;;;2.30;;
3795;SDS011;1913;50.660;7.834;2023-03-26T00:17:17;12.97;;;3.20;;
3795;SDS011;1913;50.660;7.834;2023-03-26T00:19:45;12.80;;;3.17;;
3795;SDS011;1913;50.660;7.834;2023-03-26T00:22:14;17.17;;;3.10;;
3795;SDS011;1913;50.660;7.834;2023-03-26T00:24:47;13.33;;;2.90;;
3795;SDS011;1913;50.660;7.834;2023-03-26T00:27:16;20.07;;;3.57;;
3795;SDS011;1913;50.660;7.834;2023-03-26T00:29:47;14.30;;;2.90;;
3795;SDS011;1913;50.660;7.834;2023-03-26T00:32:19;13.30;;;3.30;;
3795;SDS011;1913;50.660;7.834;2023-03-26T00:34:57;13.13;;;3.80;;
3795;SDS011;1913;50.660;7.834;2023-03-26T00:37:34;19.13;;;3.23;;
3795;SDS011;1913;50.660;7.834;2023-03-26T00:40:08;17.10;;;4.63;;
3795;SDS011;1913;50.660;7.834;2023-03-26T00:42:44;16.20;;;3.40;;
3795;SDS011;1913;50.660;7.834;2023-03-26T00:45:14;21.10;;;3.73;;
3795;SDS011;1913;50.660;7.834;2023-03-26T00:47:47;12.60;;;2.70;;
3795;SDS011;1913;50.660;7.834;2023-03-26T00:50:18;12.23;;;3.20;;
3795;SDS011;1913;50.660;7.834;2023-03-26T00:52:59;13.33;;;3.80;;
3795;SDS011;1913;50.660;7.834;2023-03-26T00:55:30;21.47;;;3.47;;
3795;SDS011;1913;50.660;7.834;2023-03-26T00:57:58;19.80;;;4.53;;
3795;SDS011;1913;50.660;7.834;2023-03-26T01:00:40;14.83;;;3.50;;
3795;SDS011;1913;50.660;7.834;2023-03-26T01:03:28;26.07;;;3.20;;
3795;SDS011;1913;50.660;7.834;2023-03-26T01:06:03;25.23;;;4.03;;
3795;SDS011;1913;50.660;7.834;2023-03-26T01:08:45;18.33;;;3.77;;
3795;SDS011;1913;50.660;7.834;2023-03-26T01:11:31;14.83;;;4.00;;
3795;SDS011;1913;50.660;7.834;2023-03-26T01:14:12;13.73;;;3.10;;
3795;SDS011;1913;50.660;7.834;2023-03-26T01:16:54;12.03;;;3.03;;
3795;SDS011;1913;50.660;7.834;2023-03-26T01:22:20;16.60;;;3.20;;
3795;SDS011;1913;50.660;7.834;2023-03-26T01:24:55;14.37;;;3.60;;
3795;SDS011;1913;50.660;7.834;2023-03-26T01:27:52;11.33;;;3.23;;
3795;SDS011;1913;50.660;7.834;2023-03-26T01:33:40;16.87;;;3.97;;
3795;SDS011;1913;50.660;7.834;2023-03-26T01:36:20;14.40;;;3.00;;
3795;SDS011;1913;50.660;7.834;2023-03-26T01:41:55;15.97;;;3.50;;
3795;SDS011;1913;50.660;7.834;2023-03-26T01:47:04;12.70;;;2.90;;
3795;SDS011;1913;50.660;7.834;2023-03-26T01:49:38;15.27;;;3.90;;
3795;SDS011;1913;50.660;7.834;2023-03-26T01:52:13;16.40;;;3.40;;
3795;SDS011;1913;50.660;7.834;2023-03-26T01:54:45;15.43;;;3.03;;
3795;SDS011;1913;50.660;7.834;2023-03-26T02:03:26;14.40;;;3.27;;
3795;SDS011;1913;50.660;7.834;2023-03-26T02:08:57;13.27;;;3.90;;
3795;SDS011;1913;50.660;7.834;2023-03-26T02:11:27;21.33;;;3.50;;
3795;SDS011;1913;50.660;7.834;2023-03-26T02:13:59;14.00;;;3.20;;
3795;SDS011;1913;50.660;7.834;2023-03-26T02:16:31;17.43;;;3.40;;
3795;SDS011;1913;50.660;7.834;2023-03-26T02:19:07;16.17;;;3.33;;
3795;SDS011;1913;50.660;7.834;2023-03-26T02:21:44;16.53;;;3.30;;
3795;SDS011;1913;50.660;7.834;2023-03-26T02:24:16;23.80;;;5.03;;
3795;SDS011;1913;50.660;7.834;2023-03-26T02:26:50;14.00;;;3.30;;
3795;SDS011;1913;50.660;7.834;2023-03-26T02:29:16;12.90;;;3.23;;
3795;SDS011;1913;50.660;7.834;2023-03-26T02:31:45;10.97;;;3.17;;
3795;SDS011;1913;50.660;7.834;2023-03-26T02:34:15;15.40;;;2.90;;
3795;SDS011;1913;50.660;7.834;2023-03-26T02:36:41;16.30;;;3.77;;
3795;SDS011;1913;50.660;7.834;2023-03-26T02:39:12;13.43;;;3.27;;
3795;SDS011;1913;50.660;7.834;2023-03-26T02:41:47;14.27;;;3.10;;
3795;SDS011;1913;50.660;7.834;2023-03-26T02:44:14;17.17;;;2.87;;
3795;SDS011;1913;50.660;7.834;2023-03-26T02:46:39;12.03;;;3.03;;
3795;SDS011;1913;50.660;7.834;2023-03-26T02:49:11;14.63;;;3.30;;
3795;SDS011;1913;50.660;7.834;2023-03-26T02:51:37;15.87;;;3.00;;
3795;SDS011;1913;50.660;7.834;2023-03-26T02:54:03;14.47;;;3.40;;
3795;SDS011;1913;50.660;7.834;2023-03-26T02:56:34;15.03;;;3.20;;
3795;SDS011;1913;50.660;7.834;2023-03-26T02:59:04;17.70;;;3.13;;
3795;SDS011;1913;50.660;7.834;2023-03-26T03:01:30;15.87;;;3.30;;
3795;SDS011;1913;50.660;7.834;2023-03-26T03:04:00;19.23;;;3.83;;
3795;SDS011;1913;50.660;7.834;2023-03-26T03:06:28;9.53;;;3.73;;
3795;SDS011;1913;50.660;7.834;2023-03-26T03:09:00;13.70;;;3.20;;
3795;SDS011;1913;50.660;7.834;2023-03-26T03:11:32;14.80;;;2.80;;
3795;SDS011;1913;50.660;7.834;2023-03-26T03:14:10;10.30;;;3.10;;
3795;SDS011;1913;50.660;7.834;2023-03-26T03:16:37;11.47;;;3.70;;
3795;SDS011;1913;50.660;7.834;2023-03-26T03:19:08;8.00;;;2.57;;
3795;SDS011;1913;50.660;7.834;2023-03-26T03:21:37;16.37;;;3.20;;
3795;SDS011;1913;50.660;7.834;2023-03-26T03:24:09;14.87;;;3.30;;
3795;SDS011;1913;50.660;7.834;2023-03-26T03:26:36;11.13;;;3.47;;
3795;SDS011;1913;50.660;7.834;2023-03-26T03:29:02;15.43;;;3.93;;
3795;SDS011;1913;50.660;7.834;2023-03-26T03:31:31;19.07;;;3.40;;
3795;SDS011;1913;50.660;7.834;2023-03-26T03:34:04;15.27;;;3.13;;
3795;SDS011;1913;50.660;7.834;2023-03-26T03:36:35;19.57;;;3.37;;
3795;SDS011;1913;50.660;7.834;2023-03-26T03:39:18;11.77;;;3.00;;
3795;SDS011;1913;50.660;7.834;2023-03-26T03:41:47;14.87;;;3.00;;
3795;SDS011;1913;50.660;7.834;2023-03-26T03:44:19;15.43;;;3.10;;
3795;SDS011;1913;50.660;7.834;2023-03-26T03:46:45;9.53;;;2.50;;
3795;SDS011;1913;50.660;7.834;2023-03-26T03:49:15;18.97;;;3.27;;
3795;SDS011;1913;50.660;7.834;2023-03-26T03:51:44;20.80;;;3.80;;
3795;SDS011;1913;50.660;7.834;2023-03-26T03:54:10;9.33;;;2.83;;
3795;SDS011;1913;50.660;7.834;2023-03-26T03:56:42;15.00;;;3.10;;
3795;SDS011;1913;50.660;7.834;2023-03-26T03:59:10;17.87;;;4.23;;
3795;SDS011;1913;50.660;7.834;2023-03-26T04:01:36;19.07;;;4.20;;
3795;SDS011;1913;50.660;7.834;2023-03-26T04:04:08;17.00;;;3.50;;
3795;SDS011;1913;50.660;7.834;2023-03-26T04:06:37;11.83;;;2.80;;
3795;SDS011;1913;50.660;7.834;2023-03-26T04:09:09;13.23;;;4.13;;
3795;SDS011;1913;50.660;7.834;2023-03-26T04:11:41;14.43;;;3.03;;
3795;SDS011;1913;50.660;7.834;2023-03-26T04:14:10;17.27;;;4.20;;
3795;SDS011;1913;50.660;7.834;2023-03-26T04:16:38;19.47;;;3.90;;
3795;SDS011;1913;50.660;7.834;2023-03-26T04:19:09;15.03;;;4.20;;
3795;SDS011;1913;50.660;7.834;2023-03-26T04:21:35;17.23;;;3.60;;
3795;SDS011;1913;50.660;7.834;2023-03-26T04:24:07;9.90;;;3.43;;
3795;SDS011;1913;50.660;7.834;2023-03-26T04:26:36;9.50;;;3.17;;
3795;SDS011;1913;50.660;7.834;2023-03-26T04:29:03;14.03;;;3.13;;
3795;SDS011;1913;50.660;7.834;2023-03-26T04:31:31;23.90;;;4.27;;
3795;SDS011;1913;50.660;7.834;2023-03-26T04:34:03;14.00;;;3.10;;
3795;SDS011;1913;50.660;7.834;2023-03-26T04:36:39;15.50;;;3.40;;
3795;SDS011;1913;50.660;7.834;2023-03-26T04:39:11;14.43;;;4.23;;
3795;SDS011;1913;50.660;7.834;2023-03-26T04:41:45;19.67;;;4.30;;
3795;SDS011;1913;50.660;7.834;2023-03-26T04:44:27;12.93;;;4.10;;
3795;SDS011;1913;50.660;7.834;2023-03-26T04:46:54;15.33;;;4.43;;
3795;SDS011;1913;50.660;7.834;2023-03-26T04:49:20;11.80;;;4.50;;
3795;SDS011;1913;50.660;7.834;2023-03-26T04:51:49;14.87;;;4.23;;
3795;SDS011;1913;50.660;7.834;2023-03-26T04:54:15;10.83;;;3.83;;
3795;SDS011;1913;50.660;7.834;2023-03-26T04:56:54;22.50;;;4.47;;
3795;SDS011;1913;50.660;7.834;2023-03-26T04:59:25;21.97;;;4.40;;
3795;SDS011;1913;50.660;7.834;2023-03-26T05:01:59;18.67;;;4.17;;
3795;SDS011;1913;50.660;7.834;2023-03-26T05:04:27;16.23;;;5.30;;
3795;SDS011;1913;50.660;7.834;2023-03-26T05:07:00;15.20;;;4.77;;
3795;SDS011;1913;50.660;7.834;2023-03-26T05:09:29;18.20;;;4.53;;
3795;SDS011;1913;50.660;7.834;2023-03-26T05:11:58;14.90;;;4.57;;
3795;SDS011;1913;50.660;7.834;2023-03-26T05:14:29;18.57;;;4.87;;
3795;SDS011;1913;50.660;7.834;2023-03-26T05:17:00;19.30;;;5.03;;
3795;SDS011;1913;50.660;7.834;2023-03-26T05:19:35;21.27;;;5.23;;
3795;SDS011;1913;50.660;7.834;2023-03-26T05:22:02;16.30;;;4.33;;
3795;SDS011;1913;50.660;7.834;2023-03-26T05:24:30;17.97;;;4.70;;
3795;SDS011;1913;50.660;7.834;2023-03-26T05:26:58;11.67;;;4.07;;
3795;SDS011;1913;50.660;7.834;2023-03-26T05:29:24;17.27;;;4.13;;
3795;SDS011;1913;50.660;7.834;2023-03-26T05:31:58;13.60;;;4.33;;
3795;SDS011;1913;50.660;7.834;2023-03-26T05:34:27;22.27;;;4.20;;
3795;SDS011;1913;50.660;7.834;2023-03-26T05:36:57;15.03;;;4.00;;
3795;SDS011;1913;50.660;7.834;2023-03-26T05:39:36;20.33;;;3.93;;
3795;SDS011;1913;50.660;7.834;2023-03-26T05:42:11;13.30;;;3.63;;
3795;SDS011;1913;50.660;7.834;2023-03-26T05:44:42;19.87;;;4.20;;
3795;SDS011;1913;50.660;7.834;2023-03-26T05:47:08;17.43;;;4.13;;
3795;SDS011;1913;50.660;7.834;2023-03-26T05:49:41;18.17;;;3.70;;
3795;SDS011;1913;50.660;7.834;2023-03-26T05:52:07;18.27;;;4.00;;
3795;SDS011;1913;50.660;7.834;2023-03-26T05:54:41;12.47;;;2.87;;
3795;SDS011;1913;50.660;7.834;2023-03-26T05:57:12;14.63;;;3.40;;
3795;SDS011;1913;50.660;7.834;2023-03-26T05:59:40;11.50;;;4.10;;
3795;SDS011;1913;50.660;7.834;2023-03-26T06:02:09;19.60;;;4.30;;
3795;SDS011;1913;50.660;7.834;2023-03-26T06:04:41;15.17;;;3.37;;
3795;SDS011;1913;50.660;7.834;2023-03-26T06:07:10;23.70;;;4.20;;
3795;SDS011;1913;50.660;7.834;2023-03-26T06:09:44;8.10;;;3.27;;
3795;SDS011;1913;50.660;7.834;2023-03-26T06:12:11;26.00;;;4.20;;
3795;SDS011;1913;50.660;7.834;2023-03-26T06:14:42;18.50;;;4.10;;
3795;SDS011;1913;50.660;7.834;2023-03-26T06:17:50;20.37;;;4.17;;
3795;SDS011;1913;50.660;7.834;2023-03-26T06:20:29;14.80;;;3.97;;
3795;SDS011;1913;50.660;7.834;2023-03-26T06:23:01;10.80;;;3.87;;
3795;SDS011;1913;50.660;7.834;2023-03-26T06:25:35;15.80;;;4.73;;
3795;SDS011;1913;50.660;7.834;2023-03-26T06:28:05;17.87;;;3.40;;
3795;SDS011;1913;50.660;7.834;2023-03-26T06:30:31;13.53;;;4.03;;
3795;SDS011;1913;50.660;7.834;2023-03-26T06:33:08;16.83;;;4.20;;
3795;SDS011;1913;50.660;7.834;2023-03-26T06:35:39;17.13;;;4.73;;
3795;SDS011;1913;50.660;7.834;2023-03-26T06:38:11;13.73;;;4.70;;
3795;SDS011;1913;50.660;7.834;2023-03-26T06:40:47;21.23;;;4.80;;
3795;SDS011;1913;50.660;7.834;2023-03-26T06:43:22;13.73;;;4.40;;
3795;SDS011;1913;50.660;7.834;2023-03-26T06:45:49;16.93;;;4.53;;
3795;SDS011;1913;50.660;7.834;2023-03-26T06:48:21;17.20;;;4.80;;
3795;SDS011;1913;50.660;7.834;2023-03-26T06:50:47;15.50;;;4.63;;
3795;SDS011;1913;50.660;7.834;2023-03-26T06:53:25;16.33;;;4.30;;
3795;SDS011;1913;50.660;7.834;2023-03-26T06:55:54;16.13;;;4.07;;
3795;SDS011;1913;50.660;7.834;2023-03-26T06:58:29;21.13;;;4.87;;
3795;SDS011;1913;50.660;7.834;2023-03-26T07:01:06;18.07;;;3.97;;
3795;SDS011;1913;50.660;7.834;2023-03-26T07:03:40;14.33;;;4.00;;
3795;SDS011;1913;50.660;7.834;2023-03-26T07:06:14;18.23;;;4.60;;
3795;SDS011;1913;50.660;7.834;2023-03-26T07:08:43;19.40;;;4.83;;
3795;SDS011;1913;50.660;7.834;2023-03-26T07:11:14;11.27;;;4.47;;
3795;SDS011;1913;50.660;7.834;2023-03-26T07:13:49;14.30;;;4.00;;
3795;SDS011;1913;50.660;7.834;2023-03-26T07:16:23;13.50;;;3.70;;
3795;SDS011;1913;50.660;7.834;2023-03-26T07:19:04;19.03;;;3.93;;
3795;SDS011;1913;50.660;7.834;2023-03-26T07:21:30;20.93;;;4.73;;
3795;SDS011;1913;50.660;7.834;2023-03-26T07:23:59;19.17;;;4.23;;
3795;SDS011;1913;50.660;7.834;2023-03-26T07:26:41;20.83;;;4.60;;
3795;SDS011;1913;50.660;7.834;2023-03-26T07:32:58;17.10;;;4.57;;
3795;SDS011;1913;50.660;7.834;2023-03-26T07:35:35;13.43;;;3.77;;
3795;SDS011;1913;50.660;7.834;2023-03-26T07:41:17;13.53;;;3.90;;
3795;SDS011;1913;50.660;7.834;2023-03-26T07:46:42;16.13;;;4.00;;
3795;SDS011;1913;50.660;7.834;2023-03-26T07:49:11;16.57;;;4.50;;
3795;SDS011;1913;50.660;7.834;2023-03-26T07:51:37;16.13;;;3.63;;
3795;SDS011;1913;50.660;7.834;2023-03-26T07:54:04;10.83;;;3.70;;
3795;SDS011;1913;50.660;7.834;2023-03-26T07:56:36;11.77;;;3.50;;
3795;SDS011;1913;50.660;7.834;2023-03-26T08:12:51;13.80;;;3.53;;
3795;SDS011;1913;50.660;7.834;2023-03-26T08:15:28;10.83;;;2.97;;
3795;SDS011;1913;50.660;7.834;2023-03-26T08:21:33;7.57;;;3.20;;
3795;SDS011;1913;50.660;7.834;2023-03-26T08:27:09;10.27;;;3.13;;
3795;SDS011;1913;50.660;7.834;2023-03-26T08:29:59;4.07;;;2.13;;
3795;SDS011;1913;50.660;7.834;2023-03-26T08:32:32;6.60;;;3.00;;
3795;SDS011;1913;50.660;7.834;2023-03-26T08:35:02;4.73;;;2.10;;
3795;SDS011;1913;50.660;7.834;2023-03-26T08:37:28;4.73;;;2.27;;
3795;SDS011;1913;50.660;7.834;2023-03-26T08:40:00;5.57;;;2.00;;
3795;SDS011;1913;50.660;7.834;2023-03-26T09:05:16;2.93;;;1.47;;
3795;SDS011;1913;50.660;7.834;2023-03-26T09:13:47;6.70;;;1.80;;
3795;SDS011;1913;50.660;7.834;2023-03-26T09:27:59;2.97;;;1.53;;
3795;SDS011;1913;50.660;7.834;2023-03-26T09:34:01;3.37;;;1.97;;
3795;SDS011;1913;50.660;7.834;2023-03-26T09:37:01;4.43;;;1.57;;
3795;SDS011;1913;50.660;7.834;2023-03-26T09:40:10;2.70;;;1.70;;
3795;SDS011;1913;50.660;7.834;2023-03-26T09:56:34;2.27;;;1.90;;
3795;SDS011;1913;50.660;7.834;2023-03-26T10:02:21;3.00;;;1.70;;
3795;SDS011;1913;50.660;7.834;2023-03-26T10:05:04;4.23;;;1.60;;
3795;SDS011;1913;50.660;7.834;2023-03-26T10:07:48;4.13;;;1.80;;
3795;SDS011;1913;50.660;7.834;2023-03-26T10:13:55;2.13;;;1.90;;
3795;SDS011;1913;50.660;7.834;2023-03-26T10:27:52;4.60;;;2.00;;
3795;SDS011;1913;50.660;7.834;2023-03-26T10:42:00;3.50;;;1.80;;
3795;SDS011;1913;50.660;7.834;2023-03-26T10:56:33;4.33;;;2.30;;
3795;SDS011;1913;50.660;7.834;2023-03-26T10:59:04;4.23;;;2.37;;
3795;SDS011;1913;50.660;7.834;2023-03-26T11:04:13;3.40;;;1.83;;
3795;SDS011;1913;50.660;7.834;2023-03-26T11:12:37;3.50;;;2.03;;
3795;SDS011;1913;50.660;7.834;2023-03-26T11:15:30;4.87;;;1.83;;
3795;SDS011;1913;50.660;7.834;2023-03-26T11:18:19;4.43;;;1.83;;
3795;SDS011;1913;50.660;7.834;2023-03-26T11:21:03;1.70;;;1.40;;
3795;SDS011;1913;50.660;7.834;2023-03-26T11:24:02;1.63;;;1.37;;
3795;SDS011;1913;50.660;7.834;2023-03-26T11:29:52;3.53;;;1.73;;
3795;SDS011;1913;50.660;7.834;2023-03-26T11:32:44;4.27;;;1.50;;
3795;SDS011;1913;50.660;7.834;2023-03-26T11:35:28;2.00;;;1.50;;
3795;SDS011;1913;50.660;7.834;2023-03-26T11:37:58;3.60;;;1.53;;
3795;SDS011;1913;50.660;7.834;2023-03-26T11:40:36;2.90;;;1.80;;
3795;SDS011;1913;50.660;7.834;2023-03-26T11:43:10;2.13;;;1.47;;
3795;SDS011;1913;50.660;7.834;2023-03-26T11:45:40;2.13;;;1.30;;
3795;SDS011;1913;50.660;7.834;2023-03-26T11:50:59;1.73;;;1.47;;
3795;SDS011;1913;50.660;7.834;2023-03-26T11:53:32;1.53;;;1.27;;
3795;SDS011;1913;50.660;7.834;2023-03-26T11:59:21;2.60;;;1.40;;
3795;SDS011;1913;50.660;7.834;2023-03-26T12:01:50;1.67;;;1.40;;
3795;SDS011;1913;50.660;7.834;2023-03-26T12:04:33;2.90;;;1.17;;
3795;SDS011;1913;50.660;7.834;2023-03-26T12:13:05;1.30;;;1.20;;
3795;SDS011;1913;50.660;7.834;2023-03-26T12:16:04;1.60;;;1.30;;
3795;SDS011;1913;50.660;7.834;2023-03-26T12:18:39;2.60;;;1.40;;
3795;SDS011;1913;50.660;7.834;2023-03-26T12:21:16;3.57;;;1.20;;
3795;SDS011;1913;50.660;7.834;2023-03-26T12:23:49;2.57;;;1.20;;
3795;SDS011;1913;50.660;7.834;2023-03-26T12:29:11;2.50;;;1.30;;
3795;SDS011;1913;50.660;7.834;2023-03-26T12:31:56;4.00;;;1.10;;
3795;SDS011;1913;50.660;7.834;2023-03-26T12:34:40;1.80;;;1.17;;
3795;SDS011;1913;50.660;7.834;2023-03-26T12:40:07;1.93;;;1.50;;
3795;SDS011;1913;50.660;7.834;2023-03-26T12:43:00;1.67;;;1.30;;
3795;SDS011;1913;50.660;7.834;2023-03-26T12:45:55;2.20;;;1.00;;
3795;SDS011;1913;50.660;7.834;2023-03-26T12:48:31;3.00;;;1.20;;
3795;SDS011;1913;50.660;7.834;2023-03-26T12:51:24;2.40;;;1.60;;
3795;SDS011;1913;50.660;7.834;2023-03-26T12:54:14;1.87;;;1.67;;
3795;SDS011;1913;50.660;7.834;2023-03-26T13:06:13;3.17;;;1.80;;
3795;SDS011;1913;50.660;7.834;2023-03-26T13:12:07;1.10;;;1.00;;
3795;SDS011;1913;50.660;7.834;2023-03-26T13:15:33;1.70;;;1.00;;
3795;SDS011;1913;50.660;7.834;2023-03-26T13:18:01;0.83;;;0.80;;
3795;SDS011;1913;50.660;7.834;2023-03-26T13:26:04;0.90;;;0.70;;
3795;SDS011;1913;50.660;7.834;2023-03-26T13:29:21;1.13;;;0.80;;
3795;SDS011;1913;50.660;7.834;2023-03-26T13:49:52;1.20;;;1.10;;
3795;SDS011;1913;50.660;7.834;2023-03-26T13:52:44;0.70;;;0.70;;
3795;SDS011;1913;50.660;7.834;2023-03-26T13:55:27;0.70;;;0.70;;
3795;SDS011;1913;50.660;7.834;2023-03-26T14:01:04;1.17;;;0.80;;
3795;SDS011;1913;50.660;7.834;2023-03-26T14:04:09;0.70;;;0.70;;
3795;SDS011;1913;50.660;7.834;2023-03-26T14:07:05;0.80;;;0.80;;
3795;SDS011;1913;50.660;7.834;2023-03-26T14:09:46;0.90;;;0.90;;
3795;SDS011;1913;50.660;7.834;2023-03-26T14:17:26;1.23;;;0.80;;
3795;SDS011;1913;50.660;7.834;2023-03-26T14:20:09;1.03;;;0.93;;
3795;SDS011;1913;50.660;7.834;2023-03-26T14:22:53;0.73;;;0.73;;
3795;SDS011;1913;50.660;7.834;2023-03-26T14:37:41;1.13;;;1.03;;
3795;SDS011;1913;50.660;7.834;2023-03-26T14:45:42;1.47;;;1.37;;
3795;SDS011;1913;50.660;7.834;2023-03-26T14:51:46;1.63;;;1.53;;
3795;SDS011;1913;50.660;7.834;2023-03-26T14:54:21;1.40;;;1.30;;
3795;SDS011;1913;50.660;7.834;2023-03-26T15:02:56;1.80;;;1.70;;
3795;SDS011;1913;50.660;7.834;2023-03-26T15:11:24;3.30;;;1.80;;
3795;SDS011;1913;50.660;7.834;2023-03-26T15:28:53;1.87;;;1.60;;
3795;SDS011;1913;50.660;7.834;2023-03-26T15:41:21;2.10;;;2.00;;
3795;SDS011;1913;50.660;7.834;2023-03-26T15:49:34;2.30;;;2.10;;
3795;SDS011;1913;50.660;7.834;2023-03-26T15:55:28;2.77;;;2.57;;
3795;SDS011;1913;50.660;7.834;2023-03-26T15:58:35;2.77;;;2.57;;
3795;SDS011;1913;50.660;7.834;2023-03-26T16:06:47;3.83;;;3.43;;
3795;SDS011;1913;50.660;7.834;2023-03-26T16:09:34;3.27;;;2.97;;
3795;SDS011;1913;50.660;7.834;2023-03-26T16:18:03;5.07;;;4.33;;
3795;SDS011;1913;50.660;7.834;2023-03-26T16:23:35;11.10;;;7.77;;
3795;SDS011;1913;50.660;7.834;2023-03-26T16:26:39;5.63;;;4.70;;
3795;SDS011;1913;50.660;7.834;2023-03-26T16:29:22;6.67;;;5.53;;
3795;SDS011;1913;50.660;7.834;2023-03-26T16:31:56;10.30;;;6.40;;
3795;SDS011;1913;50.660;7.834;2023-03-26T16:45:57;7.67;;;6.00;;
3795;SDS011;1913;50.660;7.834;2023-03-26T16:56:39;12.70;;;8.20;;
3795;SDS011;1913;50.660;7.834;2023-03-26T17:02:25;13.10;;;8.77;;
3795;SDS011;1913;50.660;7.834;2023-03-26T17:08:26;6.20;;;4.63;;
3795;SDS011;1913;50.660;7.834;2023-03-26T17:11:47;8.17;;;7.10;;
3795;SDS011;1913;50.660;7.834;2023-03-26T17:14:23;8.93;;;6.40;;
3795;SDS011;1913;50.660;7.834;2023-03-26T17:20:02;6.87;;;5.67;;
3795;SDS011;1913;50.660;7.834;2023-03-26T17:23:11;8.43;;;5.60;;
3795;SDS011;1913;50.660;7.834;2023-03-26T17:26:03;6.93;;;5.00;;
3795;SDS011;1913;50.660;7.834;2023-03-26T17:31:42;8.37;;;7.47;;
3795;SDS011;1913;50.660;7.834;2023-03-26T17:34:38;7.67;;;6.00;;
3795;SDS011;1913;50.660;7.834;2023-03-26T17:37:33;6.20;;;4.73;;
3795;SDS011;1913;50.660;7.834;2023-03-26T17:42:37;4.50;;;3.10;;
3795;SDS011;1913;50.660;7.834;2023-03-26T17:45:07;3.70;;;3.10;;
3795;SDS011;1913;50.660;7.834;2023-03-26T17:50:56;1.80;;;1.70;;
3795;SDS011;1913;50.660;7.834;2023-03-26T17:53:33;2.03;;;1.83;;
3795;SDS011;1913;50.660;7.834;2023-03-26T17:56:05;4.87;;;2.50;;
3795;SDS011;1913;50.660;7.834;2023-03-26T17:58:41;2.00;;;1.60;;
3795;SDS011;1913;50.660;7.834;2023-03-26T18:03:51;1.97;;;1.53;;
3795;SDS011;1913;50.660;7.834;2023-03-26T18:06:39;1.57;;;1.47;;
3795;SDS011;1913;50.660;7.834;2023-03-26T18:12:45;1.60;;;1.23;;
3795;SDS011;1913;50.660;7.834;2023-03-26T18:18:08;1.87;;;1.40;;
3795;SDS011;1913;50.660;7.834;2023-03-26T18:20:42;1.57;;;1.47;;
3795;SDS011;1913;50.660;7.834;2023-03-26T18:23:19;1.67;;;1.40;;
3795;SDS011;1913;50.660;7.834;2023-03-26T18:28:40;2.17;;;1.40;;
3795;SDS011;1913;50.660;7.834;2023-03-26T18:31:18;2.00;;;1.57;;
3795;SDS011;1913;50.660;7.834;2023-03-26T18:33:46;3.37;;;2.40;;
3795;SDS011;1913;50.660;7.834;2023-03-26T18:36:14;2.03;;;1.83;;
3795;SDS011;1913;50.660;7.834;2023-03-26T18:38:45;1.77;;;1.67;;
3795;SDS011;1913;50.660;7.834;2023-03-26T18:41:25;2.57;;;2.30;;
3795;SDS011;1913;50.660;7.834;2023-03-26T18:44:02;2.73;;;1.90;;
3795;SDS011;1913;50.660;7.834;2023-03-26T18:46:58;1.50;;;1.40;;
3795;SDS011;1913;50.660;7.834;2023-03-26T18:49:28;2.00;;;1.80;;
3795;SDS011;1913;50.660;7.834;2023-03-26T18:51:54;2.23;;;1.70;;
3795;SDS011;1913;50.660;7.834;2023-03-26T18:54:20;3.70;;;1.90;;
3795;SDS011;1913;50.660;7.834;2023-03-26T18:56:56;1.50;;;1.40;;
3795;SDS011;1913;50.660;7.834;2023-03-26T18:59:27;2.00;;;1.70;;
3795;SDS011;1913;50.660;7.834;2023-03-26T19:01:56;2.00;;;1.90;;
3795;SDS011;1913;50.660;7.834;2023-03-26T19:04:24;2.03;;;1.83;;
3795;SDS011;1913;50.660;7.834;2023-03-26T19:06:52;3.37;;;1.83;;
3795;SDS011;1913;50.660;7.834;2023-03-26T19:09:20;1.83;;;1.70;;
3795;SDS011;1913;50.660;7.834;2023-03-26T19:11:48;3.20;;;1.70;;
3795;SDS011;1913;50.660;7.834;2023-03-26T19:14:29;2.20;;;2.00;;
3795;SDS011;1913;50.660;7.834;2023-03-26T19:17:03;1.87;;;1.63;;
3795;SDS011;1913;50.660;7.834;2023-03-26T19:19:31;2.20;;;2.00;;
3795;SDS011;1913;50.660;7.834;2023-03-26T19:22:01;2.67;;;2.20;;
3795;SDS011;1913;50.660;7.834;2023-03-26T19:24:29;2.13;;;1.90;;
3795;SDS011;1913;50.660;7.834;2023-03-26T19:26:56;3.40;;;2.10;;
3795;SDS011;1913;50.660;7.834;2023-03-26T19:29:30;3.73;;;1.90;;
3795;SDS011;1913;50.660;7.834;2023-03-26T19:32:05;3.90;;;1.93;;
3795;SDS011;1913;50.660;7.834;2023-03-26T19:34:45;1.90;;;1.70;;
3795;SDS011;1913;50.660;7.834;2023-03-26T19:37:19;2.90;;;2.43;;
3795;SDS011;1913;50.660;7.834;2023-03-26T19:39:49;3.30;;;2.77;;
3795;SDS011;1913;50.660;7.834;2023-03-26T19:42:24;2.93;;;2.57;;
3795;SDS011;1913;50.660;7.834;2023-03-26T19:44:57;3.73;;;3.00;;
3795;SDS011;1913;50.660;7.834;2023-03-26T19:47:39;4.40;;;3.33;;
3795;SDS011;1913;50.660;7.834;2023-03-26T19:52:48;8.70;;;4.30;;
3795;SDS011;1913;50.660;7.834;2023-03-26T19:58:38;7.07;;;4.43;;
3795;SDS011;1913;50.660;7.834;2023-03-26T20:01:21;5.77;;;3.90;;
3795;SDS011;1913;50.660;7.834;2023-03-26T20:03:55;8.80;;;4.43;;
3795;SDS011;1913;50.660;7.834;2023-03-26T20:06:24;8.27;;;4.53;;
3795;SDS011;1913;50.660;7.834;2023-03-26T20:08:59;8.43;;;4.80;;
3795;SDS011;1913;50.660;7.834;2023-03-26T20:11:32;8.30;;;5.70;;
3795;SDS011;1913;50.660;7.834;2023-03-26T20:14:14;9.10;;;4.80;;
3795;SDS011;1913;50.660;7.834;2023-03-26T20:16:55;9.53;;;5.37;;
3795;SDS011;1913;50.660;7.834;2023-03-26T20:19:31;10.47;;;4.97;;
3795;SDS011;1913;50.660;7.834;2023-03-26T20:22:21;10.63;;;5.40;;
3795;SDS011;1913;50.660;7.834;2023-03-26T20:25:18;10.80;;;5.10;;
3795;SDS011;1913;50.660;7.834;2023-03-26T20:27:52;13.17;;;6.43;;
3795;SDS011;1913;50.660;7.834;2023-03-26T20:30:21;10.20;;;5.67;;
3795;SDS011;1913;50.660;7.834;2023-03-26T20:32:53;13.13;;;6.10;;
3795;SDS011;1913;50.660;7.834;2023-03-26T20:35:30;10.50;;;6.07;;
3795;SDS011;1913;50.660;7.834;2023-03-26T20:38:02;9.50;;;6.37;;
3795;SDS011;1913;50.660;7.834;2023-03-26T20:40:28;15.53;;;6.93;;
3795;SDS011;1913;50.660;7.834;2023-03-26T20:42:55;12.00;;;7.10;;
3795;SDS011;1913;50.660;7.834;2023-03-26T20:45:21;11.97;;;6.93;;
3795;SDS011;1913;50.660;7.834;2023-03-26T20:47:53;13.73;;;7.00;;
3795;SDS011;1913;50.660;7.834;2023-03-26T20:50:20;21.47;;;7.80;;
3795;SDS011;1913;50.660;7.834;2023-03-26T20:52:48;13.67;;;8.10;;
3795;SDS011;1913;50.660;7.834;2023-03-26T20:55:18;19.17;;;8.10;;
3795;SDS011;1913;50.660;7.834;2023-03-26T20:57:48;16.57;;;8.23;;
3795;SDS011;1913;50.660;7.834;2023-03-26T21:00:16;24.33;;;10.17;;
3795;SDS011;1913;50.660;7.834;2023-03-26T21:02:49;20.63;;;8.07;;
3795;SDS011;1913;50.660;7.834;2023-03-26T21:05:20;21.00;;;8.80;;
3795;SDS011;1913;50.660;7.834;2023-03-26T21:10:26;30.50;;;9.50;;
3795;SDS011;1913;50.660;7.834;2023-03-26T21:13:06;29.17;;;9.33;;
3795;SDS011;1913;50.660;7.834;2023-03-26T21:15:56;28.83;;;10.47;;
3795;SDS011;1913;50.660;7.834;2023-03-26T21:18:24;27.57;;;10.23;;
3795;SDS011;1913;50.660;7.834;2023-03-26T21:21:01;21.70;;;11.13;;
3795;SDS011;1913;50.660;7.834;2023-03-26T21:23:56;31.23;;;11.03;;
3795;SDS011;1913;50.660;7.834;2023-03-26T21:26:55;24.70;;;10.33;;
3795;SDS011;1913;50.660;7.834;2023-03-26T21:29:29;29.50;;;10.93;;
3795;SDS011;1913;50.660;7.834;2023-03-26T21:32:00;26.50;;;9.53;;
3795;SDS011;1913;50.660;7.834;2023-03-26T21:34:29;29.60;;;9.70;;
3795;SDS011;1913;50.660;7.834;2023-03-26T21:37:00;25.53;;;10.07;;
3795;SDS011;1913;50.660;7.834;2023-03-26T21:39:27;21.60;;;9.20;;
3795;SDS011;1913;50.660;7.834;2023-03-26T21:41:54;29.60;;;8.43;;
3795;SDS011;1913;50.660;7.834;2023-03-26T21:44:30;20.83;;;8.87;;
3795;SDS011;1913;50.660;7.834;2023-03-26T21:47:01;33.93;;;8.67;;
3795;SDS011;1913;50.660;7.834;2023-03-26T21:49:27;27.03;;;8.90;;
3795;SDS011;1913;50.660;7.834;2023-03-26T21:51:54;31.50;;;7.90;;
3795;SDS011;1913;50.660;7.834;2023-03-26T21:59:29;21.93;;;7.93;;
3795;SDS011;1913;50.660;7.834;2023-03-26T22:02:19;14.33;;;5.30;;
3795;SDS011;1913;50.660;7.834;2023-03-26T22:04:56;21.60;;;5.77;;